PWSweather.com
Personal Weather Stations
Station Observations
NAGEO265NE
Bedzin GrodziecPL 42-506

Bedzin GrodziecPL 42-506

Lat: 50.347, Lon: 19.079

Elevation: 948

Station Type: WH1080

http://www.meteo-grodziec.pl/

High Low Average
Temperature 34.5°F1.4°C 30.9°F-0.6°C 33.1°F0.6°C
Dew Point 34.2°F1.2°C 30.4°F-0.9°C 32.6°F0.3°C
Winds 3.0 mph 4.8 kmh Calm Calm Calm SECalm SE
Wind Gusts 8.0 mph12.9 kmh -- 2.0 mph3.2 kmh
Humidity 98% 98% 98%
Pressure 29.80 in1009.1 mb 29.48 in998.3 mb -
Precipitation 0.02 in0.5 mm - -
Hour Temp Dew Point Humidity Winds Wind Gusts Pressure Precip Precip Rate Daily Precip Total
12:00 AM 32.7°F0.4°C 32.2°F0.1°C 98% 1.0 mph SW1.6 kmh SW 4.0 mph6.4 kmh 29.49 in998.6 mb 0.00 in0.0 mm 0.00 in0.0 mm 0.00 in0.0 mm
12:05 AM 32.7°F0.4°C 32.2°F0.1°C 98% 1.0 mph SW1.6 kmh SW 7.0 mph11.3 kmh 29.49 in998.6 mb 0.00 in0.0 mm 0.00 in0.0 mm 0.00 in0.0 mm
12:10 AM 32.7°F0.4°C 32.4°F0.2°C 98% 2.0 mph SW3.2 kmh SW 7.0 mph11.3 kmh 29.49 in998.6 mb 0.00 in0.0 mm 0.00 in0.0 mm 0.00 in0.0 mm
12:15 AM 32.7°F0.4°C 32.4°F0.2°C 98% 2.0 mph SW3.2 kmh SW 4.0 mph6.4 kmh 29.49 in998.6 mb 0.00 in0.0 mm 0.00 in0.0 mm 0.00 in0.0 mm
12:20 AM 32.7°F0.4°C 32.4°F0.2°C 98% 1.0 mph SW1.6 kmh SW 4.0 mph6.4 kmh 29.49 in998.6 mb 0.00 in0.0 mm 0.00 in0.0 mm 0.00 in0.0 mm
12:25 AM 32.7°F0.4°C 32.4°F0.2°C 98% 1.0 mph WSW1.6 kmh WSW 4.0 mph6.4 kmh 29.48 in998.3 mb 0.00 in0.0 mm 0.00 in0.0 mm 0.00 in0.0 mm
12:30 AM 32.9°F0.5°C 32.4°F0.2°C 98% 1.0 mph SW1.6 kmh SW 3.0 mph4.8 kmh 29.48 in998.3 mb 0.00 in0.0 mm 0.00 in0.0 mm 0.00 in0.0 mm
12:35 AM 32.9°F0.5°C 32.4°F0.2°C 98% 2.0 mph SW3.2 kmh SW 4.0 mph6.4 kmh 29.48 in998.3 mb 0.00 in0.0 mm 0.00 in0.0 mm 0.00 in0.0 mm
12:40 AM 33.1°F0.6°C 32.5°F0.3°C 98% 2.0 mph SW3.2 kmh SW 4.0 mph6.4 kmh 29.48 in998.3 mb 0.00 in0.0 mm 0.00 in0.0 mm 0.00 in0.0 mm
12:45 AM 33.1°F0.6°C 32.5°F0.3°C 98% 2.0 mph SW3.2 kmh SW 5.0 mph8.0 kmh 29.48 in998.3 mb 0.00 in0.0 mm 0.00 in0.0 mm 0.00 in0.0 mm
12:50 AM 33.1°F0.6°C 32.5°F0.3°C 98% 1.0 mph SW1.6 kmh SW 5.0 mph8.0 kmh 29.48 in998.3 mb 0.00 in0.0 mm 0.00 in0.0 mm 0.00 in0.0 mm
12:55 AM 33.3°F0.7°C 32.7°F0.4°C 98% 2.0 mph SW3.2 kmh SW 6.0 mph9.7 kmh 29.48 in998.3 mb 0.00 in0.0 mm 0.00 in0.0 mm 0.00 in0.0 mm
01:00 AM 33.3°F0.7°C 32.7°F0.4°C 98% 2.0 mph SW3.2 kmh SW 6.0 mph9.7 kmh 29.48 in998.3 mb 0.00 in0.0 mm 0.00 in0.0 mm 0.00 in0.0 mm
01:05 AM 33.3°F0.7°C 32.7°F0.4°C 98% 2.0 mph SW3.2 kmh SW 7.0 mph11.3 kmh 29.48 in998.3 mb 0.00 in0.0 mm 0.00 in0.0 mm 0.00 in0.0 mm
01:10 AM 33.3°F0.7°C 32.7°F0.4°C 98% 3.0 mph SW4.8 kmh SW 7.0 mph11.3 kmh 29.48 in998.3 mb 0.00 in0.0 mm 0.00 in0.0 mm 0.00 in0.0 mm
01:15 AM 33.3°F0.7°C 32.7°F0.4°C 98% 3.0 mph SW4.8 kmh SW 6.0 mph9.7 kmh 29.48 in998.3 mb 0.00 in0.0 mm 0.00 in0.0 mm 0.00 in0.0 mm
01:20 AM 33.3°F0.7°C 32.7°F0.4°C 98% 2.0 mph SW3.2 kmh SW 8.0 mph12.9 kmh 29.48 in998.3 mb 0.00 in0.0 mm 0.00 in0.0 mm 0.00 in0.0 mm
01:25 AM 33.3°F0.7°C 32.7°F0.4°C 98% 2.0 mph SW3.2 kmh SW 8.0 mph12.9 kmh 29.48 in998.3 mb 0.00 in0.0 mm 0.00 in0.0 mm 0.00 in0.0 mm
01:30 AM 33.3°F0.7°C 32.7°F0.4°C 98% 2.0 mph SW3.2 kmh SW 8.0 mph12.9 kmh 29.48 in998.3 mb 0.00 in0.0 mm 0.00 in0.0 mm 0.00 in0.0 mm
01:35 AM 33.3°F0.7°C 32.7°F0.4°C 98% 2.0 mph SW3.2 kmh SW 5.0 mph8.0 kmh 29.48 in998.3 mb 0.00 in0.0 mm 0.00 in0.0 mm 0.00 in0.0 mm
01:40 AM 33.3°F0.7°C 32.7°F0.4°C 98% 1.0 mph SW1.6 kmh SW 5.0 mph8.0 kmh 29.48 in998.3 mb 0.00 in0.0 mm 0.00 in0.0 mm 0.00 in0.0 mm
01:45 AM 33.3°F0.7°C 32.7°F0.4°C 98% 2.0 mph SW3.2 kmh SW 6.0 mph9.7 kmh 29.48 in998.3 mb 0.00 in0.0 mm 0.00 in0.0 mm 0.00 in0.0 mm
01:50 AM 33.3°F0.7°C 32.7°F0.4°C 98% 2.0 mph SW3.2 kmh SW 6.0 mph9.7 kmh 29.48 in998.3 mb 0.00 in0.0 mm 0.00 in0.0 mm 0.00 in0.0 mm
01:55 AM 33.3°F0.7°C 32.7°F0.4°C 98% 2.0 mph SW3.2 kmh SW 6.0 mph9.7 kmh 29.48 in998.3 mb 0.00 in0.0 mm 0.00 in0.0 mm 0.00 in0.0 mm
02:00 AM 33.4°F0.8°C 32.9°F0.5°C 98% 3.0 mph SW4.8 kmh SW 7.0 mph11.3 kmh 29.49 in998.6 mb 0.00 in0.0 mm 0.00 in0.0 mm 0.00 in0.0 mm
02:05 AM 33.4°F0.8°C 32.9°F0.5°C 98% 3.0 mph SW4.8 kmh SW 7.0 mph11.3 kmh 29.49 in998.6 mb 0.00 in0.0 mm 0.00 in0.0 mm 0.00 in0.0 mm
02:10 AM 33.4°F0.8°C 32.9°F0.5°C 98% 3.0 mph SW4.8 kmh SW 8.0 mph12.9 kmh 29.49 in998.6 mb 0.00 in0.0 mm 0.00 in0.0 mm 0.00 in0.0 mm
02:15 AM 33.4°F0.8°C 33.1°F0.6°C 98% 2.0 mph SW3.2 kmh SW 8.0 mph12.9 kmh 29.49 in998.6 mb 0.00 in0.0 mm 0.00 in0.0 mm 0.00 in0.0 mm
02:20 AM 33.4°F0.8°C 32.9°F0.5°C 98% 2.0 mph SW3.2 kmh SW 7.0 mph11.3 kmh 29.49 in998.6 mb 0.00 in0.0 mm 0.00 in0.0 mm 0.00 in0.0 mm
02:25 AM 33.4°F0.8°C 32.9°F0.5°C 98% 2.0 mph SW3.2 kmh SW 5.0 mph8.0 kmh 29.49 in998.6 mb 0.00 in0.0 mm 0.00 in0.0 mm 0.00 in0.0 mm
02:30 AM 33.4°F0.8°C 32.9°F0.5°C 98% 2.0 mph SW3.2 kmh SW 5.0 mph8.0 kmh 29.49 in998.6 mb 0.00 in0.0 mm 0.00 in0.0 mm 0.00 in0.0 mm
02:35 AM 33.4°F0.8°C 33.1°F0.6°C 98% 2.0 mph SW3.2 kmh SW 6.0 mph9.7 kmh 29.49 in998.6 mb 0.00 in0.0 mm 0.00 in0.0 mm 0.00 in0.0 mm
02:40 AM 33.4°F0.8°C 33.1°F0.6°C 98% 2.0 mph SW3.2 kmh SW 6.0 mph9.7 kmh 29.49 in998.6 mb 0.00 in0.0 mm 0.00 in0.0 mm 0.00 in0.0 mm
02:45 AM 33.6°F0.9°C 33.1°F0.6°C 98% 2.0 mph SW3.2 kmh SW 6.0 mph9.7 kmh 29.49 in998.6 mb 0.00 in0.0 mm 0.00 in0.0 mm 0.00 in0.0 mm
02:50 AM 33.4°F0.8°C 33.1°F0.6°C 98% 2.0 mph SW3.2 kmh SW 6.0 mph9.7 kmh 29.49 in998.6 mb 0.00 in0.0 mm 0.00 in0.0 mm 0.00 in0.0 mm
02:55 AM 33.4°F0.8°C 33.1°F0.6°C 98% 2.0 mph SW3.2 kmh SW 6.0 mph9.7 kmh 29.49 in998.6 mb 0.00 in0.0 mm 0.00 in0.0 mm 0.00 in0.0 mm
03:00 AM 33.4°F0.8°C 33.1°F0.6°C 98% 1.0 mph SW1.6 kmh SW 6.0 mph9.7 kmh 29.49 in998.6 mb 0.00 in0.0 mm 0.00 in0.0 mm 0.00 in0.0 mm
03:05 AM 33.4°F0.8°C 33.1°F0.6°C 98% 1.0 mph SW1.6 kmh SW 5.0 mph8.0 kmh 29.50 in999.0 mb 0.00 in0.0 mm 0.00 in0.0 mm 0.00 in0.0 mm
03:10 AM 33.4°F0.8°C 32.9°F0.5°C 98% 1.0 mph SW1.6 kmh SW 6.0 mph9.7 kmh 29.49 in998.6 mb 0.00 in0.0 mm 0.00 in0.0 mm 0.00 in0.0 mm
03:15 AM 33.4°F0.8°C 32.9°F0.5°C 98% 1.0 mph SW1.6 kmh SW 6.0 mph9.7 kmh 29.49 in998.6 mb 0.00 in0.0 mm 0.00 in0.0 mm 0.00 in0.0 mm
03:20 AM 33.3°F0.7°C 32.7°F0.4°C 98% 1.0 mph WSW1.6 kmh WSW 6.0 mph9.7 kmh 29.50 in999.0 mb 0.00 in0.0 mm 0.00 in0.0 mm 0.00 in0.0 mm
03:25 AM 33.3°F0.7°C 32.7°F0.4°C 98% 1.0 mph WSW1.6 kmh WSW 6.0 mph9.7 kmh 29.50 in999.0 mb 0.00 in0.0 mm 0.00 in0.0 mm 0.00 in0.0 mm
03:30 AM 33.3°F0.7°C 32.7°F0.4°C 98% Calm Calm 3.0 mph4.8 kmh 29.50 in999.0 mb 0.00 in0.0 mm 0.00 in0.0 mm 0.00 in0.0 mm
03:35 AM 33.3°F0.7°C 32.7°F0.4°C 98% Calm Calm 3.0 mph4.8 kmh 29.50 in999.0 mb 0.00 in0.0 mm 0.00 in0.0 mm 0.00 in0.0 mm
03:40 AM 33.1°F0.6°C 32.5°F0.3°C 98% Calm Calm 3.0 mph4.8 kmh 29.50 in999.0 mb 0.00 in0.0 mm 0.00 in0.0 mm 0.00 in0.0 mm
03:45 AM 33.1°F0.6°C 32.5°F0.3°C 98% Calm Calm 3.0 mph4.8 kmh 29.50 in999.0 mb 0.00 in0.0 mm 0.00 in0.0 mm 0.00 in0.0 mm
03:50 AM 33.1°F0.6°C 32.5°F0.3°C 98% 1.0 mph SW1.6 kmh SW 4.0 mph6.4 kmh 29.50 in999.0 mb 0.01 in0.3 mm 0.12 in3.0 mm 0.01 in0.3 mm
03:55 AM 33.1°F0.6°C 32.5°F0.3°C 98% 1.0 mph WSW1.6 kmh WSW 4.0 mph6.4 kmh 29.50 in999.0 mb 0.01 in0.3 mm 0.00 in0.0 mm 0.01 in0.3 mm
04:00 AM 33.1°F0.6°C 32.5°F0.3°C 98% Calm Calm 4.0 mph6.4 kmh 29.50 in999.0 mb 0.01 in0.3 mm 0.00 in0.0 mm 0.01 in0.3 mm
04:05 AM 33.1°F0.6°C 32.5°F0.3°C 98% 1.0 mph SW1.6 kmh SW 4.0 mph6.4 kmh 29.50 in999.0 mb 0.01 in0.3 mm 0.00 in0.0 mm 0.01 in0.3 mm
04:10 AM 33.1°F0.6°C 32.5°F0.3°C 98% 1.0 mph SW1.6 kmh SW 4.0 mph6.4 kmh 29.50 in999.0 mb 0.01 in0.3 mm 0.00 in0.0 mm 0.01 in0.3 mm
04:15 AM 33.1°F0.6°C 32.5°F0.3°C 98% Calm Calm 4.0 mph6.4 kmh 29.50 in999.0 mb 0.01 in0.3 mm 0.00 in0.0 mm 0.01 in0.3 mm
04:20 AM 33.1°F0.6°C 32.5°F0.3°C 98% Calm Calm 3.0 mph4.8 kmh 29.50 in999.0 mb 0.01 in0.3 mm 0.00 in0.0 mm 0.01 in0.3 mm
04:25 AM 33.1°F0.6°C 32.5°F0.3°C 98% Calm Calm 3.0 mph4.8 kmh 29.50 in999.0 mb 0.01 in0.3 mm 0.00 in0.0 mm 0.01 in0.3 mm
04:30 AM 33.1°F0.6°C 32.5°F0.3°C 98% Calm Calm 2.0 mph3.2 kmh 29.49 in998.6 mb 0.01 in0.3 mm 0.00 in0.0 mm 0.01 in0.3 mm
04:35 AM 33.1°F0.6°C 32.5°F0.3°C 98% Calm Calm 1.0 mph1.6 kmh 29.49 in998.6 mb 0.01 in0.3 mm 0.00 in0.0 mm 0.01 in0.3 mm
04:40 AM 33.1°F0.6°C 32.5°F0.3°C 98% Calm Calm 1.0 mph1.6 kmh 29.49 in998.6 mb 0.01 in0.3 mm 0.00 in0.0 mm 0.01 in0.3 mm
04:45 AM 33.3°F0.7°C 32.7°F0.4°C 98% Calm Calm 2.0 mph3.2 kmh 29.50 in999.0 mb 0.02 in0.5 mm 0.12 in3.0 mm 0.02 in0.5 mm
04:50 AM 33.1°F0.6°C 32.5°F0.3°C 98% Calm Calm 2.0 mph3.2 kmh 29.49 in998.6 mb 0.01 in0.3 mm 0.00 in0.0 mm 0.02 in0.5 mm
04:55 AM 33.1°F0.6°C 32.5°F0.3°C 98% Calm Calm 2.0 mph3.2 kmh 29.50 in999.0 mb 0.01 in0.3 mm 0.00 in0.0 mm 0.02 in0.5 mm
05:00 AM 33.1°F0.6°C 32.5°F0.3°C 98% Calm Calm 2.0 mph3.2 kmh 29.50 in999.0 mb 0.01 in0.3 mm 0.00 in0.0 mm 0.02 in0.5 mm
05:05 AM 33.1°F0.6°C 32.5°F0.3°C 98% Calm Calm 2.0 mph3.2 kmh 29.49 in998.6 mb 0.01 in0.3 mm 0.00 in0.0 mm 0.02 in0.5 mm
05:10 AM 32.9°F0.5°C 32.4°F0.2°C 98% Calm Calm 2.0 mph3.2 kmh 29.50 in999.0 mb 0.01 in0.3 mm 0.00 in0.0 mm 0.02 in0.5 mm
05:15 AM 32.9°F0.5°C 32.4°F0.2°C 98% Calm Calm 1.0 mph1.6 kmh 29.50 in999.0 mb 0.01 in0.3 mm 0.00 in0.0 mm 0.02 in0.5 mm
05:20 AM 32.9°F0.5°C 32.4°F0.2°C 98% Calm Calm 1.0 mph1.6 kmh 29.49 in998.6 mb 0.01 in0.3 mm 0.00 in0.0 mm 0.02 in0.5 mm
05:25 AM 32.9°F0.5°C 32.4°F0.2°C 98% Calm Calm 1.0 mph1.6 kmh 29.50 in999.0 mb 0.01 in0.3 mm 0.00 in0.0 mm 0.02 in0.5 mm
05:30 AM 32.7°F0.4°C 32.4°F0.2°C 98% Calm Calm -- 29.50 in999.0 mb 0.01 in0.3 mm 0.00 in0.0 mm 0.02 in0.5 mm
05:35 AM 32.7°F0.4°C 32.4°F0.2°C 98% Calm Calm -- 29.50 in999.0 mb 0.01 in0.3 mm 0.00 in0.0 mm 0.02 in0.5 mm
05:40 AM 32.7°F0.4°C 32.4°F0.2°C 98% Calm Calm -- 29.49 in998.6 mb 0.01 in0.3 mm 0.00 in0.0 mm 0.02 in0.5 mm
05:45 AM 32.7°F0.4°C 32.4°F0.2°C 98% Calm Calm -- 29.50 in999.0 mb 0.00 in0.0 mm 0.00 in0.0 mm 0.02 in0.5 mm
05:50 AM 32.7°F0.4°C 32.4°F0.2°C 98% Calm Calm -- 29.50 in999.0 mb 0.00 in0.0 mm 0.00 in0.0 mm 0.02 in0.5 mm
05:55 AM 32.7°F0.4°C 32.4°F0.2°C 98% Calm Calm -- 29.50 in999.0 mb 0.00 in0.0 mm 0.00 in0.0 mm 0.02 in0.5 mm
06:00 AM 32.9°F0.5°C 32.4°F0.2°C 98% Calm Calm -- 29.50 in999.0 mb 0.00 in0.0 mm 0.00 in0.0 mm 0.02 in0.5 mm
06:05 AM 32.9°F0.5°C 32.4°F0.2°C 98% Calm Calm -- 29.50 in999.0 mb 0.00 in0.0 mm 0.00 in0.0 mm 0.02 in0.5 mm
06:10 AM 32.9°F0.5°C 32.4°F0.2°C 98% Calm Calm 1.0 mph1.6 kmh 29.50 in999.0 mb 0.00 in0.0 mm 0.00 in0.0 mm 0.02 in0.5 mm
06:15 AM 32.9°F0.5°C 32.4°F0.2°C 98% Calm Calm 1.0 mph1.6 kmh 29.50 in999.0 mb 0.00 in0.0 mm 0.00 in0.0 mm 0.02 in0.5 mm
06:20 AM 32.9°F0.5°C 32.4°F0.2°C 98% Calm Calm 1.0 mph1.6 kmh 29.50 in999.0 mb 0.00 in0.0 mm 0.00 in0.0 mm 0.02 in0.5 mm
06:25 AM 32.9°F0.5°C 32.4°F0.2°C 98% Calm Calm -- 29.50 in999.0 mb 0.00 in0.0 mm 0.00 in0.0 mm 0.02 in0.5 mm
06:30 AM 32.9°F0.5°C 32.4°F0.2°C 98% Calm Calm -- 29.50 in999.0 mb 0.00 in0.0 mm 0.00 in0.0 mm 0.02 in0.5 mm
06:35 AM 32.9°F0.5°C 32.4°F0.2°C 98% Calm Calm -- 29.50 in999.0 mb 0.00 in0.0 mm 0.00 in0.0 mm 0.02 in0.5 mm
06:40 AM 32.9°F0.5°C 32.4°F0.2°C 98% Calm Calm -- 29.50 in999.0 mb 0.00 in0.0 mm 0.00 in0.0 mm 0.02 in0.5 mm
06:45 AM 32.9°F0.5°C 32.4°F0.2°C 98% Calm Calm -- 29.51 in999.3 mb 0.00 in0.0 mm 0.00 in0.0 mm 0.02 in0.5 mm
06:50 AM 32.9°F0.5°C 32.4°F0.2°C 98% Calm Calm 1.0 mph1.6 kmh 29.51 in999.3 mb 0.00 in0.0 mm 0.00 in0.0 mm 0.02 in0.5 mm
06:55 AM 32.7°F0.4°C 32.4°F0.2°C 98% Calm Calm 2.0 mph3.2 kmh 29.51 in999.3 mb 0.00 in0.0 mm 0.00 in0.0 mm 0.02 in0.5 mm
07:00 AM 32.9°F0.5°C 32.4°F0.2°C 98% Calm Calm 2.0 mph3.2 kmh 29.51 in999.3 mb 0.00 in0.0 mm 0.00 in0.0 mm 0.02 in0.5 mm
07:05 AM 32.7°F0.4°C 32.4°F0.2°C 98% Calm Calm 2.0 mph3.2 kmh 29.51 in999.3 mb 0.00 in0.0 mm 0.00 in0.0 mm 0.02 in0.5 mm
07:10 AM 32.9°F0.5°C 32.4°F0.2°C 98% Calm Calm 2.0 mph3.2 kmh 29.51 in999.3 mb 0.00 in0.0 mm 0.00 in0.0 mm 0.02 in0.5 mm
07:15 AM 32.9°F0.5°C 32.4°F0.2°C 98% Calm Calm 2.0 mph3.2 kmh 29.52 in999.7 mb 0.00 in0.0 mm 0.00 in0.0 mm 0.02 in0.5 mm
07:20 AM 32.9°F0.5°C 32.4°F0.2°C 98% Calm Calm 2.0 mph3.2 kmh 29.52 in999.7 mb 0.00 in0.0 mm 0.00 in0.0 mm 0.02 in0.5 mm
07:25 AM 32.9°F0.5°C 32.4°F0.2°C 98% 1.0 mph SW1.6 kmh SW 3.0 mph4.8 kmh 29.52 in999.7 mb 0.00 in0.0 mm 0.00 in0.0 mm 0.02 in0.5 mm
07:30 AM 32.7°F0.4°C 32.4°F0.2°C 98% Calm Calm 3.0 mph4.8 kmh 29.52 in999.7 mb 0.00 in0.0 mm 0.00 in0.0 mm 0.02 in0.5 mm
07:35 AM 32.7°F0.4°C 32.4°F0.2°C 98% Calm Calm 2.0 mph3.2 kmh 29.52 in999.7 mb 0.00 in0.0 mm 0.00 in0.0 mm 0.02 in0.5 mm
07:40 AM 32.7°F0.4°C 32.4°F0.2°C 98% Calm Calm 1.0 mph1.6 kmh 29.52 in999.7 mb 0.00 in0.0 mm 0.00 in0.0 mm 0.02 in0.5 mm
07:45 AM 32.7°F0.4°C 32.4°F0.2°C 98% Calm Calm 1.0 mph1.6 kmh 29.52 in999.7 mb 0.00 in0.0 mm 0.00 in0.0 mm 0.02 in0.5 mm
07:50 AM 32.7°F0.4°C 32.2°F0.1°C 98% Calm Calm 1.0 mph1.6 kmh 29.53 in1000.0 mb 0.00 in0.0 mm 0.00 in0.0 mm 0.02 in0.5 mm
07:55 AM 32.7°F0.4°C 32.2°F0.1°C 98% Calm Calm 1.0 mph1.6 kmh 29.53 in1000.0 mb 0.00 in0.0 mm 0.00 in0.0 mm 0.02 in0.5 mm
08:00 AM 32.7°F0.4°C 32.4°F0.2°C 98% Calm Calm 3.0 mph4.8 kmh 29.53 in1000.0 mb 0.00 in0.0 mm 0.00 in0.0 mm 0.02 in0.5 mm
08:05 AM 32.7°F0.4°C 32.4°F0.2°C 98% Calm Calm 3.0 mph4.8 kmh 29.53 in1000.0 mb 0.00 in0.0 mm 0.00 in0.0 mm 0.02 in0.5 mm
08:10 AM 32.7°F0.4°C 32.4°F0.2°C 98% 1.0 mph SW1.6 kmh SW 3.0 mph4.8 kmh 29.53 in1000.0 mb 0.00 in0.0 mm 0.00 in0.0 mm 0.02 in0.5 mm
08:15 AM 32.7°F0.4°C 32.4°F0.2°C 98% 1.0 mph SW1.6 kmh SW 3.0 mph4.8 kmh 29.53 in1000.0 mb 0.00 in0.0 mm 0.00 in0.0 mm 0.02 in0.5 mm
08:20 AM 32.7°F0.4°C 32.4°F0.2°C 98% 1.0 mph SW1.6 kmh SW 3.0 mph4.8 kmh 29.53 in1000.0 mb 0.00 in0.0 mm 0.00 in0.0 mm 0.02 in0.5 mm
08:25 AM 32.7°F0.4°C 32.4°F0.2°C 98% 1.0 mph SW1.6 kmh SW 4.0 mph6.4 kmh 29.53 in1000.0 mb 0.00 in0.0 mm 0.00 in0.0 mm 0.02 in0.5 mm
08:30 AM 32.7°F0.4°C 32.4°F0.2°C 98% 1.0 mph SW1.6 kmh SW 4.0 mph6.4 kmh 29.54 in1000.3 mb 0.00 in0.0 mm 0.00 in0.0 mm 0.02 in0.5 mm
08:35 AM 32.7°F0.4°C 32.2°F0.1°C 98% 1.0 mph SW1.6 kmh SW 4.0 mph6.4 kmh 29.54 in1000.3 mb 0.00 in0.0 mm 0.00 in0.0 mm 0.02 in0.5 mm
08:40 AM 32.7°F0.4°C 32.2°F0.1°C 98% 1.0 mph WSW1.6 kmh WSW 6.0 mph9.7 kmh 29.54 in1000.3 mb 0.00 in0.0 mm 0.00 in0.0 mm 0.02 in0.5 mm
08:45 AM 32.7°F0.4°C 32.2°F0.1°C 98% 1.0 mph WSW1.6 kmh WSW 6.0 mph9.7 kmh 29.54 in1000.3 mb 0.00 in0.0 mm 0.00 in0.0 mm 0.02 in0.5 mm
08:50 AM 32.7°F0.4°C 32.4°F0.2°C 98% Calm Calm 4.0 mph6.4 kmh 29.54 in1000.3 mb 0.00 in0.0 mm 0.00 in0.0 mm 0.02 in0.5 mm
08:55 AM 32.7°F0.4°C 32.4°F0.2°C 98% Calm Calm 4.0 mph6.4 kmh 29.54 in1000.3 mb 0.00 in0.0 mm 0.00 in0.0 mm 0.02 in0.5 mm
09:00 AM 32.7°F0.4°C 32.4°F0.2°C 98% 1.0 mph W1.6 kmh W 4.0 mph6.4 kmh 29.54 in1000.3 mb 0.00 in0.0 mm 0.00 in0.0 mm 0.02 in0.5 mm
09:05 AM 32.7°F0.4°C 32.4°F0.2°C 98% 1.0 mph NW1.6 kmh NW 3.0 mph4.8 kmh 29.54 in1000.3 mb 0.00 in0.0 mm 0.00 in0.0 mm 0.02 in0.5 mm
09:10 AM 32.9°F0.5°C 32.4°F0.2°C 98% Calm Calm 3.0 mph4.8 kmh 29.54 in1000.3 mb 0.00 in0.0 mm 0.00 in0.0 mm 0.02 in0.5 mm
09:15 AM 32.9°F0.5°C 32.4°F0.2°C 98% Calm Calm 3.0 mph4.8 kmh 29.55 in1000.7 mb 0.00 in0.0 mm 0.00 in0.0 mm 0.02 in0.5 mm
09:20 AM 33.1°F0.6°C 32.5°F0.3°C 98% Calm Calm 1.0 mph1.6 kmh 29.55 in1000.7 mb 0.00 in0.0 mm 0.00 in0.0 mm 0.02 in0.5 mm
09:25 AM 33.1°F0.6°C 32.5°F0.3°C 98% Calm Calm 1.0 mph1.6 kmh 29.55 in1000.7 mb 0.00 in0.0 mm 0.00 in0.0 mm 0.02 in0.5 mm
09:30 AM 33.1°F0.6°C 32.5°F0.3°C 98% Calm Calm 1.0 mph1.6 kmh 29.55 in1000.7 mb 0.00 in0.0 mm 0.00 in0.0 mm 0.02 in0.5 mm
09:35 AM 33.1°F0.6°C 32.5°F0.3°C 98% 1.0 mph SW1.6 kmh SW 3.0 mph4.8 kmh 29.55 in1000.7 mb 0.00 in0.0 mm 0.00 in0.0 mm 0.02 in0.5 mm
09:40 AM 33.3°F0.7°C 32.7°F0.4°C 98% 1.0 mph SW1.6 kmh SW 3.0 mph4.8 kmh 29.55 in1000.7 mb 0.00 in0.0 mm 0.00 in0.0 mm 0.02 in0.5 mm
09:45 AM 33.3°F0.7°C 32.7°F0.4°C 98% Calm Calm 4.0 mph6.4 kmh 29.55 in1000.7 mb 0.00 in0.0 mm 0.00 in0.0 mm 0.02 in0.5 mm
09:50 AM 33.3°F0.7°C 32.7°F0.4°C 98% Calm Calm 4.0 mph6.4 kmh 29.55 in1000.7 mb 0.00 in0.0 mm 0.00 in0.0 mm 0.02 in0.5 mm
09:55 AM 33.3°F0.7°C 32.7°F0.4°C 98% Calm Calm 3.0 mph4.8 kmh 29.56 in1001.0 mb 0.00 in0.0 mm 0.00 in0.0 mm 0.02 in0.5 mm
10:00 AM 33.3°F0.7°C 32.7°F0.4°C 98% Calm Calm 3.0 mph4.8 kmh 29.56 in1001.0 mb 0.00 in0.0 mm 0.00 in0.0 mm 0.02 in0.5 mm
10:05 AM 33.4°F0.8°C 32.9°F0.5°C 98% Calm Calm 2.0 mph3.2 kmh 29.56 in1001.0 mb 0.00 in0.0 mm 0.00 in0.0 mm 0.02 in0.5 mm
10:10 AM 33.4°F0.8°C 32.9°F0.5°C 98% Calm Calm 2.0 mph3.2 kmh 29.56 in1001.0 mb 0.00 in0.0 mm 0.00 in0.0 mm 0.02 in0.5 mm
10:15 AM 33.4°F0.8°C 33.1°F0.6°C 98% Calm Calm 2.0 mph3.2 kmh 29.56 in1001.0 mb 0.00 in0.0 mm 0.00 in0.0 mm 0.02 in0.5 mm
10:20 AM 33.6°F0.9°C 33.1°F0.6°C 98% Calm Calm 1.0 mph1.6 kmh 29.56 in1001.0 mb 0.00 in0.0 mm 0.00 in0.0 mm 0.02 in0.5 mm
10:25 AM 33.8°F1.0°C 33.3°F0.7°C 98% Calm Calm 3.0 mph4.8 kmh 29.56 in1001.0 mb 0.00 in0.0 mm 0.00 in0.0 mm 0.02 in0.5 mm
10:30 AM 34.0°F1.1°C 33.4°F0.8°C 98% 1.0 mph SW1.6 kmh SW 4.0 mph6.4 kmh 29.56 in1001.0 mb 0.00 in0.0 mm 0.00 in0.0 mm 0.02 in0.5 mm
10:35 AM 34.0°F1.1°C 33.4°F0.8°C 98% 1.0 mph SW1.6 kmh SW 4.0 mph6.4 kmh 29.57 in1001.4 mb 0.00 in0.0 mm 0.00 in0.0 mm 0.02 in0.5 mm
10:40 AM 34.2°F1.2°C 33.6°F0.9°C 98% 1.0 mph SW1.6 kmh SW 3.0 mph4.8 kmh 29.57 in1001.4 mb 0.00 in0.0 mm 0.00 in0.0 mm 0.02 in0.5 mm
10:45 AM 34.2°F1.2°C 33.6°F0.9°C 98% Calm Calm 2.0 mph3.2 kmh 29.57 in1001.4 mb 0.00 in0.0 mm 0.00 in0.0 mm 0.02 in0.5 mm
10:50 AM 34.2°F1.2°C 33.6°F0.9°C 98% Calm Calm 1.0 mph1.6 kmh 29.57 in1001.4 mb 0.00 in0.0 mm 0.00 in0.0 mm 0.02 in0.5 mm
10:55 AM 34.0°F1.1°C 33.4°F0.8°C 98% Calm Calm 2.0 mph3.2 kmh 29.57 in1001.4 mb 0.00 in0.0 mm 0.00 in0.0 mm 0.02 in0.5 mm
11:00 AM 34.0°F1.1°C 33.4°F0.8°C 98% 1.0 mph SW1.6 kmh SW 3.0 mph4.8 kmh 29.57 in1001.4 mb 0.00 in0.0 mm 0.00 in0.0 mm 0.02 in0.5 mm
11:05 AM 33.8°F1.0°C 33.3°F0.7°C 98% Calm Calm 3.0 mph4.8 kmh 29.57 in1001.4 mb 0.00 in0.0 mm 0.00 in0.0 mm 0.02 in0.5 mm
11:10 AM 34.0°F1.1°C 33.4°F0.8°C 98% 1.0 mph SW1.6 kmh SW 2.0 mph3.2 kmh 29.57 in1001.4 mb 0.00 in0.0 mm 0.00 in0.0 mm 0.02 in0.5 mm
11:15 AM 34.0°F1.1°C 33.4°F0.8°C 98% 1.0 mph SW1.6 kmh SW 3.0 mph4.8 kmh 29.57 in1001.4 mb 0.00 in0.0 mm 0.00 in0.0 mm 0.02 in0.5 mm
11:20 AM 34.0°F1.1°C 33.4°F0.8°C 98% 1.0 mph SW1.6 kmh SW 3.0 mph4.8 kmh 29.57 in1001.4 mb 0.00 in0.0 mm 0.00 in0.0 mm 0.02 in0.5 mm
11:25 AM 34.2°F1.2°C 33.6°F0.9°C 98% 1.0 mph SW1.6 kmh SW 2.0 mph3.2 kmh 29.57 in1001.4 mb 0.00 in0.0 mm 0.00 in0.0 mm 0.02 in0.5 mm
11:30 AM 34.0°F1.1°C 33.4°F0.8°C 98% 1.0 mph SW1.6 kmh SW 3.0 mph4.8 kmh 29.57 in1001.4 mb 0.00 in0.0 mm 0.00 in0.0 mm 0.02 in0.5 mm
11:35 AM 34.0°F1.1°C 33.4°F0.8°C 98% 1.0 mph SW1.6 kmh SW 3.0 mph4.8 kmh 29.57 in1001.4 mb 0.00 in0.0 mm 0.00 in0.0 mm 0.02 in0.5 mm
11:40 AM 34.2°F1.2°C 33.6°F0.9°C 98% Calm Calm 3.0 mph4.8 kmh 29.57 in1001.4 mb 0.00 in0.0 mm 0.00 in0.0 mm 0.02 in0.5 mm
11:45 AM 34.3°F1.3°C 33.8°F1.0°C 98% Calm Calm 3.0 mph4.8 kmh 29.57 in1001.4 mb 0.00 in0.0 mm 0.00 in0.0 mm 0.02 in0.5 mm
11:50 AM 34.2°F1.2°C 33.6°F0.9°C 98% Calm Calm 2.0 mph3.2 kmh 29.57 in1001.4 mb 0.00 in0.0 mm 0.00 in0.0 mm 0.02 in0.5 mm
11:55 AM 34.0°F1.1°C 33.4°F0.8°C 98% Calm Calm 3.0 mph4.8 kmh 29.57 in1001.4 mb 0.00 in0.0 mm 0.00 in0.0 mm 0.02 in0.5 mm
12:00 PM 34.0°F1.1°C 33.4°F0.8°C 98% 1.0 mph SW1.6 kmh SW 3.0 mph4.8 kmh 29.56 in1001.0 mb 0.00 in0.0 mm 0.00 in0.0 mm 0.02 in0.5 mm
12:05 PM 34.0°F1.1°C 33.4°F0.8°C 98% 1.0 mph SW1.6 kmh SW 3.0 mph4.8 kmh 29.57 in1001.4 mb 0.00 in0.0 mm 0.00 in0.0 mm 0.02 in0.5 mm
12:10 PM 33.8°F1.0°C 33.3°F0.7°C 98% Calm Calm 3.0 mph4.8 kmh 29.57 in1001.4 mb 0.00 in0.0 mm 0.00 in0.0 mm 0.02 in0.5 mm
12:15 PM 34.0°F1.1°C 33.4°F0.8°C 98% Calm Calm 3.0 mph4.8 kmh 29.57 in1001.4 mb 0.00 in0.0 mm 0.00 in0.0 mm 0.02 in0.5 mm
12:20 PM 33.8°F1.0°C 33.3°F0.7°C 98% Calm Calm 2.0 mph3.2 kmh 29.57 in1001.4 mb 0.00 in0.0 mm 0.00 in0.0 mm 0.02 in0.5 mm
12:25 PM 34.0°F1.1°C 33.4°F0.8°C 98% Calm Calm 1.0 mph1.6 kmh 29.57 in1001.4 mb 0.00 in0.0 mm 0.00 in0.0 mm 0.02 in0.5 mm
12:30 PM 34.0°F1.1°C 33.4°F0.8°C 98% Calm Calm 1.0 mph1.6 kmh 29.57 in1001.4 mb 0.00 in0.0 mm 0.00 in0.0 mm 0.02 in0.5 mm
12:35 PM 34.0°F1.1°C 33.4°F0.8°C 98% Calm Calm 1.0 mph1.6 kmh 29.57 in1001.4 mb 0.00 in0.0 mm 0.00 in0.0 mm 0.02 in0.5 mm
12:40 PM 34.0°F1.1°C 33.4°F0.8°C 98% Calm Calm 1.0 mph1.6 kmh 29.57 in1001.4 mb 0.00 in0.0 mm 0.00 in0.0 mm 0.02 in0.5 mm
12:45 PM 34.0°F1.1°C 33.4°F0.8°C 98% Calm Calm -- 29.57 in1001.4 mb 0.00 in0.0 mm 0.00 in0.0 mm 0.02 in0.5 mm
12:50 PM 34.2°F1.2°C 33.6°F0.9°C 98% Calm Calm -- 29.57 in1001.4 mb 0.00 in0.0 mm 0.00 in0.0 mm 0.02 in0.5 mm
12:55 PM 34.2°F1.2°C 33.6°F0.9°C 98% Calm Calm -- 29.57 in1001.4 mb 0.00 in0.0 mm 0.00 in0.0 mm 0.02 in0.5 mm
01:00 PM 34.3°F1.3°C 33.8°F1.0°C 98% Calm Calm -- 29.57 in1001.4 mb 0.00 in0.0 mm 0.00 in0.0 mm 0.02 in0.5 mm
01:05 PM 34.3°F1.3°C 33.8°F1.0°C 98% Calm Calm -- 29.57 in1001.4 mb 0.00 in0.0 mm 0.00 in0.0 mm 0.02 in0.5 mm
01:10 PM 34.2°F1.2°C 33.6°F0.9°C 98% Calm Calm -- 29.57 in1001.4 mb 0.00 in0.0 mm 0.00 in0.0 mm 0.02 in0.5 mm
01:15 PM 34.2°F1.2°C 33.6°F0.9°C 98% Calm Calm -- 29.58 in1001.7 mb 0.00 in0.0 mm 0.00 in0.0 mm 0.02 in0.5 mm
01:20 PM 34.2°F1.2°C 33.6°F0.9°C 98% Calm Calm -- 29.58 in1001.7 mb 0.00 in0.0 mm 0.00 in0.0 mm 0.02 in0.5 mm
01:25 PM 34.2°F1.2°C 33.6°F0.9°C 98% Calm Calm -- 29.58 in1001.7 mb 0.00 in0.0 mm 0.00 in0.0 mm 0.02 in0.5 mm
01:30 PM 34.0°F1.1°C 33.4°F0.8°C 98% Calm Calm -- 29.58 in1001.7 mb 0.00 in0.0 mm 0.00 in0.0 mm 0.02 in0.5 mm
01:35 PM 34.0°F1.1°C 33.4°F0.8°C 98% Calm Calm -- 29.58 in1001.7 mb 0.00 in0.0 mm 0.00 in0.0 mm 0.02 in0.5 mm
01:40 PM 34.2°F1.2°C 33.6°F0.9°C 98% Calm Calm -- 29.58 in1001.7 mb 0.00 in0.0 mm 0.00 in0.0 mm 0.02 in0.5 mm
01:45 PM 34.2°F1.2°C 33.6°F0.9°C 98% Calm Calm -- 29.58 in1001.7 mb 0.00 in0.0 mm 0.00 in0.0 mm 0.02 in0.5 mm
01:50 PM 34.3°F1.3°C 33.8°F1.0°C 98% Calm Calm -- 29.59 in1002.0 mb 0.00 in0.0 mm 0.00 in0.0 mm 0.02 in0.5 mm
01:55 PM 34.3°F1.3°C 33.8°F1.0°C 98% Calm Calm -- 29.59 in1002.0 mb 0.00 in0.0 mm 0.00 in0.0 mm 0.02 in0.5 mm
02:00 PM 34.5°F1.4°C 34.0°F1.1°C 98% Calm Calm -- 29.59 in1002.0 mb 0.00 in0.0 mm 0.00 in0.0 mm 0.02 in0.5 mm
02:05 PM 34.5°F1.4°C 34.0°F1.1°C 98% Calm Calm -- 29.59 in1002.0 mb 0.00 in0.0 mm 0.00 in0.0 mm 0.02 in0.5 mm
02:10 PM 34.5°F1.4°C 34.2°F1.2°C 98% Calm Calm -- 29.59 in1002.0 mb 0.00 in0.0 mm 0.00 in0.0 mm 0.02 in0.5 mm
02:15 PM 34.5°F1.4°C 34.0°F1.1°C 98% Calm Calm -- 29.59 in1002.0 mb 0.00 in0.0 mm 0.00 in0.0 mm 0.02 in0.5 mm
02:20 PM 34.5°F1.4°C 34.0°F1.1°C 98% Calm Calm 2.0 mph3.2 kmh 29.59 in1002.0 mb 0.00 in0.0 mm 0.00 in0.0 mm 0.02 in0.5 mm
02:25 PM 34.3°F1.3°C 34.0°F1.1°C 98% Calm Calm 2.0 mph3.2 kmh 29.59 in1002.0 mb 0.00 in0.0 mm 0.00 in0.0 mm 0.02 in0.5 mm
02:30 PM 34.3°F1.3°C 34.0°F1.1°C 98% Calm Calm 2.0 mph3.2 kmh 29.60 in1002.4 mb 0.00 in0.0 mm 0.00 in0.0 mm 0.02 in0.5 mm
02:35 PM 34.2°F1.2°C 33.6°F0.9°C 98% Calm Calm 3.0 mph4.8 kmh 29.60 in1002.4 mb 0.00 in0.0 mm 0.00 in0.0 mm 0.02 in0.5 mm
02:40 PM 34.2°F1.2°C 33.6°F0.9°C 98% Calm Calm 3.0 mph4.8 kmh 29.60 in1002.4 mb 0.00 in0.0 mm 0.00 in0.0 mm 0.02 in0.5 mm
02:45 PM 34.0°F1.1°C 33.4°F0.8°C 98% Calm Calm 2.0 mph3.2 kmh 29.60 in1002.4 mb 0.00 in0.0 mm 0.00 in0.0 mm 0.02 in0.5 mm
02:50 PM 34.0°F1.1°C 33.4°F0.8°C 98% 1.0 mph S1.6 kmh S 3.0 mph4.8 kmh 29.61 in1002.7 mb 0.00 in0.0 mm 0.00 in0.0 mm 0.02 in0.5 mm
02:55 PM 33.8°F1.0°C 33.3°F0.7°C 98% 1.0 mph S1.6 kmh S 3.0 mph4.8 kmh 29.61 in1002.7 mb 0.00 in0.0 mm 0.00 in0.0 mm 0.02 in0.5 mm
03:00 PM 33.6°F0.9°C 33.3°F0.7°C 98% Calm Calm 1.0 mph1.6 kmh 29.61 in1002.7 mb 0.00 in0.0 mm 0.00 in0.0 mm 0.02 in0.5 mm
03:05 PM 33.6°F0.9°C 33.1°F0.6°C 98% Calm Calm 1.0 mph1.6 kmh 29.61 in1002.7 mb 0.00 in0.0 mm 0.00 in0.0 mm 0.02 in0.5 mm
03:10 PM 33.6°F0.9°C 33.1°F0.6°C 98% Calm Calm 1.0 mph1.6 kmh 29.61 in1002.7 mb 0.00 in0.0 mm 0.00 in0.0 mm 0.02 in0.5 mm
03:15 PM 33.4°F0.8°C 33.1°F0.6°C 98% Calm Calm -- 29.61 in1002.7 mb 0.00 in0.0 mm 0.00 in0.0 mm 0.02 in0.5 mm
03:20 PM 33.4°F0.8°C 33.1°F0.6°C 98% Calm Calm -- 29.61 in1002.7 mb 0.00 in0.0 mm 0.00 in0.0 mm 0.02 in0.5 mm
03:25 PM 33.4°F0.8°C 32.9°F0.5°C 98% Calm Calm -- 29.61 in1002.7 mb 0.00 in0.0 mm 0.00 in0.0 mm 0.02 in0.5 mm
03:30 PM 33.3°F0.7°C 32.7°F0.4°C 98% Calm Calm -- 29.61 in1002.7 mb 0.00 in0.0 mm 0.00 in0.0 mm 0.02 in0.5 mm
03:35 PM 33.3°F0.7°C 32.7°F0.4°C 98% Calm Calm -- 29.62 in1003.0 mb 0.00 in0.0 mm 0.00 in0.0 mm 0.02 in0.5 mm
03:40 PM 33.3°F0.7°C 32.7°F0.4°C 98% Calm Calm 1.0 mph1.6 kmh 29.62 in1003.0 mb 0.00 in0.0 mm 0.00 in0.0 mm 0.02 in0.5 mm
03:45 PM 33.3°F0.7°C 32.7°F0.4°C 98% Calm Calm 1.0 mph1.6 kmh 29.62 in1003.0 mb 0.00 in0.0 mm 0.00 in0.0 mm 0.02 in0.5 mm
03:50 PM 33.1°F0.6°C 32.5°F0.3°C 98% Calm Calm 1.0 mph1.6 kmh 29.62 in1003.0 mb 0.00 in0.0 mm 0.00 in0.0 mm 0.02 in0.5 mm
03:55 PM 33.1°F0.6°C 32.5°F0.3°C 98% Calm Calm -- 29.62 in1003.0 mb 0.00 in0.0 mm 0.00 in0.0 mm 0.02 in0.5 mm
04:00 PM 33.1°F0.6°C 32.5°F0.3°C 98% Calm Calm -- 29.63 in1003.4 mb 0.00 in0.0 mm 0.00 in0.0 mm 0.02 in0.5 mm
04:05 PM 33.1°F0.6°C 32.5°F0.3°C 98% Calm Calm 1.0 mph1.6 kmh 29.63 in1003.4 mb 0.00 in0.0 mm 0.00 in0.0 mm 0.02 in0.5 mm
04:10 PM 33.1°F0.6°C 32.5°F0.3°C 98% Calm Calm 1.0 mph1.6 kmh 29.63 in1003.4 mb 0.00 in0.0 mm 0.00 in0.0 mm 0.02 in0.5 mm
04:15 PM 33.1°F0.6°C 32.5°F0.3°C 98% Calm Calm -- 29.63 in1003.4 mb 0.00 in0.0 mm 0.00 in0.0 mm 0.02 in0.5 mm
04:20 PM 33.1°F0.6°C 32.5°F0.3°C 98% Calm Calm -- 29.63 in1003.4 mb 0.00 in0.0 mm 0.00 in0.0 mm 0.02 in0.5 mm
04:25 PM 33.1°F0.6°C 32.5°F0.3°C 98% Calm Calm -- 29.64 in1003.7 mb 0.00 in0.0 mm 0.00 in0.0 mm 0.02 in0.5 mm
04:30 PM 33.3°F0.7°C 32.7°F0.4°C 98% Calm Calm -- 29.64 in1003.7 mb 0.00 in0.0 mm 0.00 in0.0 mm 0.02 in0.5 mm
04:35 PM 33.3°F0.7°C 32.7°F0.4°C 98% Calm Calm -- 29.64 in1003.7 mb 0.00 in0.0 mm 0.00 in0.0 mm 0.02 in0.5 mm
04:40 PM 33.3°F0.7°C 32.7°F0.4°C 98% Calm Calm 1.0 mph1.6 kmh 29.64 in1003.7 mb 0.00 in0.0 mm 0.00 in0.0 mm 0.02 in0.5 mm
04:45 PM 33.3°F0.7°C 32.7°F0.4°C 98% Calm Calm 1.0 mph1.6 kmh 29.64 in1003.7 mb 0.00 in0.0 mm 0.00 in0.0 mm 0.02 in0.5 mm
04:50 PM 33.3°F0.7°C 32.7°F0.4°C 98% Calm Calm 1.0 mph1.6 kmh 29.64 in1003.7 mb 0.00 in0.0 mm 0.00 in0.0 mm 0.02 in0.5 mm
04:55 PM 33.3°F0.7°C 32.7°F0.4°C 98% Calm Calm 1.0 mph1.6 kmh 29.64 in1003.7 mb 0.00 in0.0 mm 0.00 in0.0 mm 0.02 in0.5 mm
05:00 PM 33.3°F0.7°C 32.7°F0.4°C 98% Calm Calm 1.0 mph1.6 kmh 29.65 in1004.1 mb 0.00 in0.0 mm 0.00 in0.0 mm 0.02 in0.5 mm
05:05 PM 33.1°F0.6°C 32.5°F0.3°C 98% Calm Calm 1.0 mph1.6 kmh 29.65 in1004.1 mb 0.00 in0.0 mm 0.00 in0.0 mm 0.02 in0.5 mm
05:10 PM 33.1°F0.6°C 32.5°F0.3°C 98% Calm Calm 1.0 mph1.6 kmh 29.65 in1004.1 mb 0.00 in0.0 mm 0.00 in0.0 mm 0.02 in0.5 mm
05:15 PM 33.1°F0.6°C 32.5°F0.3°C 98% Calm Calm -- 29.65 in1004.1 mb 0.00 in0.0 mm 0.00 in0.0 mm 0.02 in0.5 mm
05:20 PM 33.1°F0.6°C 32.5°F0.3°C 98% Calm Calm -- 29.66 in1004.4 mb 0.00 in0.0 mm 0.00 in0.0 mm 0.02 in0.5 mm
05:25 PM 33.1°F0.6°C 32.5°F0.3°C 98% Calm Calm 1.0 mph1.6 kmh 29.66 in1004.4 mb 0.00 in0.0 mm 0.00 in0.0 mm 0.02 in0.5 mm
05:30 PM 33.1°F0.6°C 32.5°F0.3°C 98% Calm Calm 1.0 mph1.6 kmh 29.66 in1004.4 mb 0.00 in0.0 mm 0.00 in0.0 mm 0.02 in0.5 mm
05:35 PM 33.1°F0.6°C 32.5°F0.3°C 98% Calm Calm 1.0 mph1.6 kmh 29.66 in1004.4 mb 0.00 in0.0 mm 0.00 in0.0 mm 0.02 in0.5 mm
05:40 PM 33.1°F0.6°C 32.5°F0.3°C 98% Calm Calm 1.0 mph1.6 kmh 29.66 in1004.4 mb 0.00 in0.0 mm 0.00 in0.0 mm 0.02 in0.5 mm
05:45 PM 33.1°F0.6°C 32.5°F0.3°C 98% Calm Calm 2.0 mph3.2 kmh 29.67 in1004.7 mb 0.00 in0.0 mm 0.00 in0.0 mm 0.02 in0.5 mm
05:50 PM 33.1°F0.6°C 32.5°F0.3°C 98% Calm Calm 2.0 mph3.2 kmh 29.67 in1004.7 mb 0.00 in0.0 mm 0.00 in0.0 mm 0.02 in0.5 mm
05:55 PM 33.1°F0.6°C 32.5°F0.3°C 98% Calm Calm 1.0 mph1.6 kmh 29.67 in1004.7 mb 0.00 in0.0 mm 0.00 in0.0 mm 0.02 in0.5 mm
06:00 PM 33.1°F0.6°C 32.5°F0.3°C 98% Calm Calm 1.0 mph1.6 kmh 29.67 in1004.7 mb 0.00 in0.0 mm 0.00 in0.0 mm 0.02 in0.5 mm
06:05 PM 33.1°F0.6°C 32.5°F0.3°C 98% Calm Calm 1.0 mph1.6 kmh 29.67 in1004.7 mb 0.00 in0.0 mm 0.00 in0.0 mm 0.02 in0.5 mm
06:10 PM 33.1°F0.6°C 32.5°F0.3°C 98% Calm Calm 1.0 mph1.6 kmh 29.67 in1004.7 mb 0.00 in0.0 mm 0.00 in0.0 mm 0.02 in0.5 mm
06:15 PM 33.1°F0.6°C 32.5°F0.3°C 98% Calm Calm -- 29.67 in1004.7 mb 0.00 in0.0 mm 0.00 in0.0 mm 0.02 in0.5 mm
06:20 PM 33.1°F0.6°C 32.5°F0.3°C 98% Calm Calm -- 29.68 in1005.1 mb 0.00 in0.0 mm 0.00 in0.0 mm 0.02 in0.5 mm
06:25 PM 33.1°F0.6°C 32.5°F0.3°C 98% Calm Calm -- 29.68 in1005.1 mb 0.00 in0.0 mm 0.00 in0.0 mm 0.02 in0.5 mm
06:30 PM 33.1°F0.6°C 32.5°F0.3°C 98% Calm Calm -- 29.68 in1005.1 mb 0.00 in0.0 mm 0.00 in0.0 mm 0.02 in0.5 mm
06:35 PM 33.1°F0.6°C 32.5°F0.3°C 98% Calm Calm -- 29.68 in1005.1 mb 0.00 in0.0 mm 0.00 in0.0 mm 0.02 in0.5 mm
06:40 PM 33.1°F0.6°C 32.5°F0.3°C 98% Calm Calm -- 29.68 in1005.1 mb 0.00 in0.0 mm 0.00 in0.0 mm 0.02 in0.5 mm
06:45 PM 33.1°F0.6°C 32.5°F0.3°C 98% Calm Calm -- 29.69 in1005.4 mb 0.00 in0.0 mm 0.00 in0.0 mm 0.02 in0.5 mm
06:50 PM 33.1°F0.6°C 32.5°F0.3°C 98% Calm Calm -- 29.69 in1005.4 mb 0.00 in0.0 mm 0.00 in0.0 mm 0.02 in0.5 mm
06:55 PM 33.1°F0.6°C 32.5°F0.3°C 98% Calm Calm 2.0 mph3.2 kmh 29.69 in1005.4 mb 0.00 in0.0 mm 0.00 in0.0 mm 0.02 in0.5 mm
07:00 PM 33.1°F0.6°C 32.5°F0.3°C 98% Calm Calm 2.0 mph3.2 kmh 29.69 in1005.4 mb 0.00 in0.0 mm 0.00 in0.0 mm 0.02 in0.5 mm
07:05 PM 33.1°F0.6°C 32.5°F0.3°C 98% Calm Calm 2.0 mph3.2 kmh 29.69 in1005.4 mb 0.00 in0.0 mm 0.00 in0.0 mm 0.02 in0.5 mm
07:10 PM 33.1°F0.6°C 32.5°F0.3°C 98% Calm Calm 1.0 mph1.6 kmh 29.70 in1005.8 mb 0.00 in0.0 mm 0.00 in0.0 mm 0.02 in0.5 mm
07:15 PM 33.1°F0.6°C 32.5°F0.3°C 98% Calm Calm 1.0 mph1.6 kmh 29.70 in1005.8 mb 0.00 in0.0 mm 0.00 in0.0 mm 0.02 in0.5 mm
07:20 PM 33.1°F0.6°C 32.5°F0.3°C 98% Calm Calm 1.0 mph1.6 kmh 29.70 in1005.8 mb 0.00 in0.0 mm 0.00 in0.0 mm 0.02 in0.5 mm
07:25 PM 33.1°F0.6°C 32.5°F0.3°C 98% Calm Calm -- 29.70 in1005.8 mb 0.00 in0.0 mm 0.00 in0.0 mm 0.02 in0.5 mm
07:30 PM 33.1°F0.6°C 32.5°F0.3°C 98% Calm Calm -- 29.70 in1005.8 mb 0.00 in0.0 mm 0.00 in0.0 mm 0.02 in0.5 mm
07:35 PM 33.1°F0.6°C 32.5°F0.3°C 98% Calm Calm -- 29.71 in1006.1 mb 0.00 in0.0 mm 0.00 in0.0 mm 0.02 in0.5 mm
07:40 PM 33.1°F0.6°C 32.5°F0.3°C 98% Calm Calm 3.0 mph4.8 kmh 29.71 in1006.1 mb 0.00 in0.0 mm 0.00 in0.0 mm 0.02 in0.5 mm
07:45 PM 33.1°F0.6°C 32.5°F0.3°C 98% Calm Calm 3.0 mph4.8 kmh 29.71 in1006.1 mb 0.00 in0.0 mm 0.00 in0.0 mm 0.02 in0.5 mm
07:50 PM 33.1°F0.6°C 32.5°F0.3°C 98% 1.0 mph NE1.6 kmh NE 4.0 mph6.4 kmh 29.71 in1006.1 mb 0.00 in0.0 mm 0.00 in0.0 mm 0.02 in0.5 mm
07:55 PM 33.1°F0.6°C 32.5°F0.3°C 98% 1.0 mph NE1.6 kmh NE 4.0 mph6.4 kmh 29.71 in1006.1 mb 0.00 in0.0 mm 0.00 in0.0 mm 0.02 in0.5 mm
08:00 PM 33.1°F0.6°C 32.5°F0.3°C 98% 1.0 mph NE1.6 kmh NE 4.0 mph6.4 kmh 29.72 in1006.4 mb 0.00 in0.0 mm 0.00 in0.0 mm 0.02 in0.5 mm
08:05 PM 32.9°F0.5°C 32.4°F0.2°C 98% 1.0 mph NE1.6 kmh NE 3.0 mph4.8 kmh 29.72 in1006.4 mb 0.00 in0.0 mm 0.00 in0.0 mm 0.02 in0.5 mm
08:10 PM 32.9°F0.5°C 32.4°F0.2°C 98% 1.0 mph NE1.6 kmh NE 3.0 mph4.8 kmh 29.72 in1006.4 mb 0.00 in0.0 mm 0.00 in0.0 mm 0.02 in0.5 mm
08:15 PM 32.9°F0.5°C 32.4°F0.2°C 98% 1.0 mph NE1.6 kmh NE 3.0 mph4.8 kmh 29.72 in1006.4 mb 0.00 in0.0 mm 0.00 in0.0 mm 0.02 in0.5 mm
08:20 PM 32.9°F0.5°C 32.4°F0.2°C 98% Calm Calm 2.0 mph3.2 kmh 29.72 in1006.4 mb 0.00 in0.0 mm 0.00 in0.0 mm 0.02 in0.5 mm
08:25 PM 32.9°F0.5°C 32.4°F0.2°C 98% Calm Calm -- 29.72 in1006.4 mb 0.00 in0.0 mm 0.00 in0.0 mm 0.02 in0.5 mm
08:30 PM 32.9°F0.5°C 32.4°F0.2°C 98% Calm Calm -- 29.73 in1006.8 mb 0.00 in0.0 mm 0.00 in0.0 mm 0.02 in0.5 mm
08:35 PM 32.7°F0.4°C 32.4°F0.2°C 98% Calm Calm -- 29.73 in1006.8 mb 0.00 in0.0 mm 0.00 in0.0 mm 0.02 in0.5 mm
08:40 PM 32.7°F0.4°C 32.2°F0.1°C 98% Calm Calm -- 29.73 in1006.8 mb 0.00 in0.0 mm 0.00 in0.0 mm 0.02 in0.5 mm
08:45 PM 32.5°F0.3°C 32.0°F0.0°C 98% Calm Calm -- 29.73 in1006.8 mb 0.00 in0.0 mm 0.00 in0.0 mm 0.02 in0.5 mm
08:50 PM 32.4°F0.2°C 31.8°F-0.1°C 98% Calm Calm -- 29.73 in1006.8 mb 0.00 in0.0 mm 0.00 in0.0 mm 0.02 in0.5 mm
08:55 PM 32.4°F0.2°C 31.8°F-0.1°C 98% Calm Calm -- 29.73 in1006.8 mb 0.00 in0.0 mm 0.00 in0.0 mm 0.02 in0.5 mm
09:00 PM 32.4°F0.2°C 31.8°F-0.1°C 98% Calm Calm -- 29.74 in1007.1 mb 0.00 in0.0 mm 0.00 in0.0 mm 0.02 in0.5 mm
09:05 PM 32.4°F0.2°C 31.8°F-0.1°C 98% Calm Calm -- 29.74 in1007.1 mb 0.00 in0.0 mm 0.00 in0.0 mm 0.02 in0.5 mm
09:10 PM 32.5°F0.3°C 32.0°F0.0°C 98% Calm Calm 2.0 mph3.2 kmh 29.75 in1007.5 mb 0.00 in0.0 mm 0.00 in0.0 mm 0.02 in0.5 mm
09:15 PM 32.5°F0.3°C 32.2°F0.1°C 98% Calm Calm 2.0 mph3.2 kmh 29.75 in1007.5 mb 0.00 in0.0 mm 0.00 in0.0 mm 0.02 in0.5 mm
09:20 PM 32.5°F0.3°C 32.0°F0.0°C 98% Calm Calm 2.0 mph3.2 kmh 29.75 in1007.5 mb 0.00 in0.0 mm 0.00 in0.0 mm 0.02 in0.5 mm
09:25 PM 32.5°F0.3°C 32.0°F0.0°C 98% Calm Calm 2.0 mph3.2 kmh 29.75 in1007.5 mb 0.00 in0.0 mm 0.00 in0.0 mm 0.02 in0.5 mm
09:30 PM 32.5°F0.3°C 32.0°F0.0°C 98% Calm Calm 2.0 mph3.2 kmh 29.75 in1007.5 mb 0.00 in0.0 mm 0.00 in0.0 mm 0.02 in0.5 mm
09:35 PM 32.5°F0.3°C 32.2°F0.1°C 98% 1.0 mph NNE1.6 kmh NNE 2.0 mph3.2 kmh 29.75 in1007.5 mb 0.00 in0.0 mm 0.00 in0.0 mm 0.02 in0.5 mm
09:40 PM 32.5°F0.3°C 32.0°F0.0°C 98% 1.0 mph NNE1.6 kmh NNE 3.0 mph4.8 kmh 29.75 in1007.5 mb 0.00 in0.0 mm 0.00 in0.0 mm 0.02 in0.5 mm
09:45 PM 32.5°F0.3°C 32.0°F0.0°C 98% 1.0 mph NNE1.6 kmh NNE 3.0 mph4.8 kmh 29.76 in1007.8 mb 0.00 in0.0 mm 0.00 in0.0 mm 0.02 in0.5 mm
09:50 PM 32.4°F0.2°C 31.8°F-0.1°C 98% 1.0 mph NNE1.6 kmh NNE 2.0 mph3.2 kmh 29.76 in1007.8 mb 0.00 in0.0 mm 0.00 in0.0 mm 0.02 in0.5 mm
09:55 PM 32.4°F0.2°C 31.8°F-0.1°C 98% 1.0 mph NNE1.6 kmh NNE 2.0 mph3.2 kmh 29.76 in1007.8 mb 0.00 in0.0 mm 0.00 in0.0 mm 0.02 in0.5 mm
10:00 PM 32.4°F0.2°C 31.8°F-0.1°C 98% 1.0 mph NE1.6 kmh NE 2.0 mph3.2 kmh 29.76 in1007.8 mb 0.00 in0.0 mm 0.00 in0.0 mm 0.02 in0.5 mm
10:05 PM 32.4°F0.2°C 31.8°F-0.1°C 98% Calm Calm 3.0 mph4.8 kmh 29.76 in1007.8 mb 0.00 in0.0 mm 0.00 in0.0 mm 0.02 in0.5 mm
10:10 PM 32.4°F0.2°C 31.8°F-0.1°C 98% Calm Calm 3.0 mph4.8 kmh 29.76 in1007.8 mb 0.00 in0.0 mm 0.00 in0.0 mm 0.02 in0.5 mm
10:15 PM 32.4°F0.2°C 31.8°F-0.1°C 98% Calm Calm 2.0 mph3.2 kmh 29.77 in1008.1 mb 0.00 in0.0 mm 0.00 in0.0 mm 0.02 in0.5 mm
10:20 PM 32.2°F0.1°C 31.6°F-0.2°C 98% Calm Calm 1.0 mph1.6 kmh 29.77 in1008.1 mb 0.00 in0.0 mm 0.00 in0.0 mm 0.02 in0.5 mm
10:25 PM 32.2°F0.1°C 31.6°F-0.2°C 98% Calm Calm 2.0 mph3.2 kmh 29.77 in1008.1 mb 0.00 in0.0 mm 0.00 in0.0 mm 0.02 in0.5 mm
10:30 PM 32.0°F0.0°C 31.5°F-0.3°C 98% Calm Calm 2.0 mph3.2 kmh 29.77 in1008.1 mb 0.00 in0.0 mm 0.00 in0.0 mm 0.02 in0.5 mm
10:35 PM 32.0°F0.0°C 31.5°F-0.3°C 98% Calm Calm 1.0 mph1.6 kmh 29.77 in1008.1 mb 0.00 in0.0 mm 0.00 in0.0 mm 0.02 in0.5 mm
10:40 PM 31.8°F-0.1°C 31.5°F-0.3°C 98% Calm Calm 1.0 mph1.6 kmh 29.77 in1008.1 mb 0.00 in0.0 mm 0.00 in0.0 mm 0.02 in0.5 mm
10:45 PM 31.6°F-0.2°C 31.3°F-0.4°C 98% Calm Calm -- 29.77 in1008.1 mb 0.00 in0.0 mm 0.00 in0.0 mm 0.02 in0.5 mm
10:50 PM 31.6°F-0.2°C 31.1°F-0.5°C 98% Calm Calm 1.0 mph1.6 kmh 29.78 in1008.5 mb 0.00 in0.0 mm 0.00 in0.0 mm 0.02 in0.5 mm
10:55 PM 31.5°F-0.3°C 30.9°F-0.6°C 98% Calm Calm 2.0 mph3.2 kmh 29.78 in1008.5 mb 0.00 in0.0 mm 0.00 in0.0 mm 0.02 in0.5 mm
11:00 PM 31.5°F-0.3°C 30.9°F-0.6°C 98% Calm Calm 2.0 mph3.2 kmh 29.78 in1008.5 mb 0.00 in0.0 mm 0.00 in0.0 mm 0.02 in0.5 mm
11:05 PM 31.3°F-0.4°C 30.7°F-0.7°C 98% Calm Calm 2.0 mph3.2 kmh 29.78 in1008.5 mb 0.00 in0.0 mm 0.00 in0.0 mm 0.02 in0.5 mm
11:10 PM 31.3°F-0.4°C 30.7°F-0.7°C 98% Calm Calm 2.0 mph3.2 kmh 29.78 in1008.5 mb 0.00 in0.0 mm 0.00 in0.0 mm 0.02 in0.5 mm
11:15 PM 31.1°F-0.5°C 30.6°F-0.8°C 98% Calm Calm 2.0 mph3.2 kmh 29.78 in1008.5 mb 0.00 in0.0 mm 0.00 in0.0 mm 0.02 in0.5 mm
11:20 PM 31.1°F-0.5°C 30.6°F-0.8°C 98% Calm Calm 2.0 mph3.2 kmh 29.78 in1008.5 mb 0.00 in0.0 mm 0.00 in0.0 mm 0.02 in0.5 mm
11:25 PM 31.1°F-0.5°C 30.6°F-0.8°C 98% Calm Calm 3.0 mph4.8 kmh 29.78 in1008.5 mb 0.00 in0.0 mm 0.00 in0.0 mm 0.02 in0.5 mm
11:30 PM 30.9°F-0.6°C 30.6°F-0.8°C 98% 1.0 mph NE1.6 kmh NE 3.0 mph4.8 kmh 29.79 in1008.8 mb 0.00 in0.0 mm 0.00 in0.0 mm 0.02 in0.5 mm
11:35 PM 30.9°F-0.6°C 30.6°F-0.8°C 98% 1.0 mph NE1.6 kmh NE 4.0 mph6.4 kmh 29.79 in1008.8 mb 0.00 in0.0 mm 0.00 in0.0 mm 0.02 in0.5 mm
11:40 PM 30.9°F-0.6°C 30.6°F-0.8°C 98% 1.0 mph NNE1.6 kmh NNE 4.0 mph6.4 kmh 29.79 in1008.8 mb 0.00 in0.0 mm 0.00 in0.0 mm 0.02 in0.5 mm
11:45 PM 30.9°F-0.6°C 30.4°F-0.9°C 98% 1.0 mph NNE1.6 kmh NNE 3.0 mph4.8 kmh 29.79 in1008.8 mb 0.00 in0.0 mm 0.00 in0.0 mm 0.02 in0.5 mm
11:50 PM 30.9°F-0.6°C 30.4°F-0.9°C 98% Calm Calm 2.0 mph3.2 kmh 29.79 in1008.8 mb 0.00 in0.0 mm 0.00 in0.0 mm 0.02 in0.5 mm
11:55 PM 30.9°F-0.6°C 30.4°F-0.9°C 98% Calm Calm 1.0 mph1.6 kmh 29.80 in1009.1 mb 0.00 in0.0 mm 0.00 in0.0 mm 0.02 in0.5 mm